createdAt,value
2022-08-05T00:00:46.503Z,8.07
2022-08-05T00:03:18.394Z,7.93
2022-08-05T00:06:04.960Z,9.87
2022-08-05T00:08:36.176Z,10.27
2022-08-05T00:11:27.980Z,11.67
2022-08-05T00:13:55.943Z,8.07
2022-08-05T00:16:35.452Z,8.23
2022-08-05T00:19:03.959Z,15.87
2022-08-05T00:21:35.788Z,9.13
2022-08-05T00:24:11.123Z,8.80
2022-08-05T00:26:50.536Z,7.20
2022-08-05T00:29:22.630Z,8.60
2022-08-05T00:32:12.634Z,13.33
2022-08-05T00:35:03.826Z,15.37
2022-08-05T00:37:50.482Z,7.47
2022-08-05T00:40:26.622Z,8.50
2022-08-05T00:42:57.791Z,13.43
2022-08-05T00:45:38.154Z,9.13
2022-08-05T00:48:10.289Z,9.10
2022-08-05T00:50:38.979Z,10.70
2022-08-05T00:54:00.680Z,7.10
2022-08-05T00:55:57.997Z,9.17
2022-08-05T00:58:27.430Z,10.80
2022-08-05T01:00:55.946Z,10.57
2022-08-05T01:03:30.956Z,9.87
2022-08-05T01:06:01.843Z,11.50
2022-08-05T01:08:43.104Z,7.23
2022-08-05T01:11:22.581Z,8.43
2022-08-05T01:14:03.245Z,11.40
2022-08-05T01:16:39.129Z,16.00
2022-08-05T01:19:20.868Z,8.93
2022-08-05T01:22:15.621Z,7.87
2022-08-05T01:25:18.120Z,8.43
2022-08-05T01:28:23.862Z,9.00
2022-08-05T01:30:55.870Z,8.17
2022-08-05T01:33:29.497Z,7.43
2022-08-05T01:36:13.041Z,9.90
2022-08-05T01:38:48.597Z,10.10
2022-08-05T01:41:21.744Z,11.23
2022-08-05T01:43:53.367Z,9.93
2022-08-05T01:46:41.896Z,8.00
2022-08-05T01:49:23.986Z,9.00
2022-08-05T01:51:59.715Z,9.73
2022-08-05T01:54:46.272Z,8.37
2022-08-05T01:58:12.660Z,8.43
2022-08-05T02:00:11.607Z,21.43
2022-08-05T02:02:46.447Z,7.70
2022-08-05T02:05:28.516Z,11.83
2022-08-05T02:08:01.324Z,13.63
2022-08-05T02:10:35.599Z,7.87
2022-08-05T02:13:15.908Z,9.17
2022-08-05T02:15:50.702Z,8.63
2022-08-05T02:18:32.692Z,9.07
2022-08-05T02:21:14.795Z,12.00
2022-08-05T02:23:53.198Z,10.43
2022-08-05T02:26:26.659Z,10.17
2022-08-05T02:28:58.155Z,7.00
2022-08-05T02:31:36.611Z,8.50
2022-08-05T02:34:10.088Z,8.27
2022-08-05T02:36:43.545Z,8.73
2022-08-05T02:39:13.174Z,9.83
2022-08-05T02:42:00.748Z,9.30
2022-08-05T02:44:31.075Z,7.97
2022-08-05T02:47:01.351Z,8.13
2022-08-05T02:49:35.842Z,7.67
2022-08-05T02:52:06.772Z,8.80
2022-08-05T02:54:37.586Z,7.33
2022-08-05T02:58:10.418Z,8.37
2022-08-05T03:00:01.324Z,7.10
2022-08-05T03:02:35.964Z,11.87
2022-08-05T03:05:06.033Z,8.03
2022-08-05T03:08:00.960Z,9.53
2022-08-05T03:10:25.494Z,11.27
2022-08-05T03:12:55.001Z,11.53
2022-08-05T03:15:24.192Z,11.47
2022-08-05T03:17:56.179Z,11.00
2022-08-05T03:20:26.327Z,11.13
2022-08-05T03:22:57.962Z,16.43
2022-08-05T03:25:33.343Z,16.10
2022-08-05T03:28:18.849Z,8.57
2022-08-05T03:30:50.961Z,9.57
2022-08-05T03:33:25.136Z,7.97
2022-08-05T03:36:13.433Z,10.27
2022-08-05T03:38:42.879Z,17.10
2022-08-05T03:41:20.673Z,10.37
2022-08-05T03:44:08.167Z,10.27
2022-08-05T03:46:38.787Z,11.07
2022-08-05T03:49:14.925Z,12.67
2022-08-05T03:52:38.330Z,8.63
2022-08-05T03:55:53.957Z,14.13
2022-08-05T03:57:41.922Z,12.10
2022-08-05T04:00:15.587Z,13.17
2022-08-05T04:02:58.629Z,10.10
2022-08-05T04:05:33.425Z,10.07
2022-08-05T04:08:05.683Z,7.77
2022-08-05T04:10:44.217Z,17.13
2022-08-05T04:13:13.141Z,9.43
2022-08-05T04:16:02.774Z,14.00
2022-08-05T04:18:30.173Z,12.97
2022-08-05T04:20:59.970Z,9.73
2022-08-05T04:24:05.396Z,12.50
2022-08-05T04:26:17.603Z,11.97
2022-08-05T04:28:51.064Z,9.07
2022-08-05T04:31:20.341Z,8.80
2022-08-05T04:34:17.429Z,12.03
2022-08-05T04:36:44.874Z,13.77
2022-08-05T04:39:14.970Z,12.23
2022-08-05T04:41:43.066Z,13.83
2022-08-05T04:44:13.706Z,11.50
2022-08-05T04:46:41.807Z,18.87
2022-08-05T04:49:15.223Z,18.60
2022-08-05T04:51:45.569Z,17.10
2022-08-05T04:54:14.891Z,17.07
2022-08-05T04:56:43.660Z,13.97
2022-08-05T04:59:21.806Z,15.50
2022-08-05T05:02:08.387Z,28.40
2022-08-05T05:04:44.044Z,20.50
2022-08-05T05:07:18.163Z,18.87
2022-08-05T05:09:46.466Z,18.53
2022-08-05T05:12:15.050Z,17.13
2022-08-05T05:14:49.509Z,16.00
2022-08-05T05:17:23.812Z,19.57
2022-08-05T05:19:55.018Z,15.17
2022-08-05T05:22:26.904Z,16.90
2022-08-05T05:24:58.988Z,15.83
2022-08-05T05:27:41.487Z,21.70
2022-08-05T05:30:29.077Z,16.97
2022-08-05T05:33:00.723Z,17.33
2022-08-05T05:35:31.614Z,16.20
2022-08-05T05:38:09.138Z,20.03
2022-08-05T05:40:48.122Z,20.90
2022-08-05T05:43:28.128Z,15.13
2022-08-05T05:46:12.243Z,20.37
2022-08-05T05:48:45.834Z,20.13
2022-08-05T05:51:20.025Z,15.67
2022-08-05T05:53:58.099Z,21.90
2022-08-05T05:56:34.552Z,22.23
2022-08-05T05:59:05.834Z,23.50
2022-08-05T06:01:37.495Z,16.60
2022-08-05T06:04:08.256Z,21.47
2022-08-05T06:06:41.581Z,17.33
2022-08-05T06:09:17.419Z,17.03
2022-08-05T06:12:01.696Z,19.83
2022-08-05T06:14:31.859Z,20.17
2022-08-05T06:17:02.216Z,27.03
2022-08-05T06:19:56.958Z,49.63
2022-08-05T06:22:29.570Z,58.20
2022-08-05T06:24:59.253Z,88.07
2022-08-05T06:28:10.624Z,100.60
2022-08-05T06:30:19.957Z,60.93
2022-08-05T06:32:50.537Z,57.90
2022-08-05T06:36:04.110Z,27.40
2022-08-05T06:38:11.242Z,42.67
2022-08-05T06:40:44.272Z,43.93
2022-08-05T06:43:51.599Z,25.40
2022-08-05T06:46:03.950Z,16.63
2022-08-05T06:48:55.527Z,19.23
2022-08-05T06:51:30.245Z,20.60
2022-08-05T06:53:59.807Z,18.47
2022-08-05T06:56:29.892Z,18.17
2022-08-05T06:59:01.448Z,29.20
2022-08-05T07:01:32.201Z,17.70
2022-08-05T07:04:01.295Z,24.13
2022-08-05T07:06:32.014Z,15.47
2022-08-05T07:09:03.750Z,17.20
2022-08-05T07:11:37.063Z,9.43
2022-08-05T07:14:30.093Z,12.43
2022-08-05T07:17:58.332Z,11.57
2022-08-05T07:20:31.188Z,8.53
2022-08-05T07:22:42.062Z,9.93
2022-08-05T07:25:54.416Z,10.57
2022-08-05T07:28:06.046Z,9.83
2022-08-05T07:30:39.934Z,6.70
2022-08-05T07:33:15.661Z,14.40
2022-08-05T07:36:04.656Z,14.67
2022-08-05T07:38:42.901Z,7.37
2022-08-05T07:42:07.697Z,9.30
2022-08-05T07:44:03.932Z,7.20
2022-08-05T07:46:33.804Z,10.43
2022-08-05T07:49:05.819Z,8.90
2022-08-05T07:51:37.360Z,6.60
2022-08-05T07:54:11.422Z,9.10
2022-08-05T07:57:14.603Z,15.27
2022-08-05T07:59:38.860Z,15.70
2022-08-05T08:02:15.492Z,18.10
2022-08-05T08:04:46.280Z,6.77
2022-08-05T08:07:15.321Z,7.10
2022-08-05T08:09:43.832Z,7.03
2022-08-05T08:12:36.960Z,8.43
2022-08-05T08:15:04.487Z,13.27
2022-08-05T08:17:33.332Z,15.47
2022-08-05T08:20:21.052Z,9.50
2022-08-05T08:22:54.207Z,6.03
2022-08-05T08:25:27.030Z,9.50
2022-08-05T08:28:18.057Z,8.20
2022-08-05T08:30:49.975Z,5.30
2022-08-05T08:33:19.194Z,8.03
2022-08-05T08:35:52.883Z,11.00
2022-08-05T08:38:36.166Z,8.77
2022-08-05T08:41:08.619Z,8.40
2022-08-05T08:45:18.291Z,12.77
2022-08-05T08:46:30.846Z,12.07
2022-08-05T08:49:09.574Z,12.30
2022-08-05T08:52:04.407Z,13.83
2022-08-05T08:54:36.688Z,6.13
2022-08-05T08:57:11.272Z,11.60
2022-08-05T08:59:41.702Z,6.67
2022-08-05T09:02:18.945Z,6.07
2022-08-05T09:04:58.118Z,7.50
2022-08-05T09:07:40.043Z,6.30
2022-08-05T09:10:27.215Z,6.30
2022-08-05T09:13:05.012Z,10.17
2022-08-05T09:15:37.152Z,9.70
2022-08-05T09:18:09.341Z,6.50
2022-08-05T09:20:38.330Z,8.63
2022-08-05T09:23:19.982Z,12.63
2022-08-05T09:26:02.518Z,6.07
2022-08-05T09:28:34.321Z,9.03
2022-08-05T09:31:22.060Z,6.20
2022-08-05T09:33:58.563Z,7.70
2022-08-05T09:36:53.933Z,6.03
2022-08-05T09:39:27.522Z,5.60
2022-08-05T09:42:08.007Z,9.70
2022-08-05T09:44:38.579Z,9.40
2022-08-05T09:47:15.856Z,6.03
2022-08-05T09:50:01.632Z,6.27
2022-08-05T09:52:33.031Z,6.20
2022-08-05T09:55:55.313Z,4.67
2022-08-05T09:57:54.805Z,10.60
2022-08-05T10:00:27.800Z,5.70
2022-08-05T10:02:59.158Z,10.23
2022-08-05T10:05:32.672Z,6.70
2022-08-05T10:08:36.962Z,4.40
2022-08-05T10:10:54.310Z,7.90
2022-08-05T10:13:31.724Z,4.87
2022-08-05T10:16:32.082Z,9.03
2022-08-05T10:19:09.477Z,6.23
2022-08-05T10:21:45.569Z,7.50
2022-08-05T10:24:19.552Z,5.50
2022-08-05T10:26:54.881Z,4.37
2022-08-05T10:31:20.141Z,7.53
2022-08-05T10:32:59.746Z,7.03
2022-08-05T10:35:11.733Z,9.00
2022-08-05T10:37:45.197Z,4.50
2022-08-05T10:40:27.728Z,6.37
2022-08-05T10:43:11.114Z,7.30
2022-08-05T10:46:06.179Z,5.33
2022-08-05T10:48:52.646Z,6.60
2022-08-05T10:51:29.242Z,7.03
2022-08-05T10:54:23.146Z,7.07
2022-08-05T10:56:57.568Z,6.87
2022-08-05T11:00:04.250Z,10.20
2022-08-05T11:02:37.727Z,5.67
2022-08-05T11:05:11.451Z,4.60
2022-08-05T11:08:17.065Z,10.50
2022-08-05T11:11:44.310Z,12.47
2022-08-05T11:15:00.860Z,4.13
2022-08-05T11:17:57.209Z,5.23
2022-08-05T11:20:41.625Z,6.53
2022-08-05T11:24:05.660Z,7.97
2022-08-05T11:26:29.061Z,10.27
2022-08-05T11:29:12.788Z,4.70
2022-08-05T11:31:57.973Z,4.10
2022-08-05T11:34:47.532Z,7.10
2022-08-05T11:38:28.525Z,3.97
2022-08-05T11:41:12.765Z,9.83
2022-08-05T11:44:05.153Z,5.23
2022-08-05T11:47:09.252Z,5.30
2022-08-05T11:49:26.981Z,4.00
2022-08-05T11:51:57.541Z,5.17
2022-08-05T11:54:33.260Z,4.70
2022-08-05T11:57:08.325Z,5.67
2022-08-05T11:59:49.657Z,5.50
2022-08-05T12:02:31.548Z,4.50
2022-08-05T12:05:08.186Z,6.23
2022-08-05T12:08:07.982Z,3.77
2022-08-05T12:10:45.965Z,7.00
2022-08-05T12:13:18.842Z,6.10
2022-08-05T12:16:04.827Z,4.40
2022-08-05T12:18:49.384Z,5.33
2022-08-05T12:21:24.914Z,5.40
2022-08-05T12:24:00.063Z,5.30
2022-08-05T12:26:36.276Z,6.13
2022-08-05T12:29:09.748Z,5.03
2022-08-05T12:31:49.902Z,5.77
2022-08-05T12:34:28.221Z,4.00
2022-08-05T12:36:57.999Z,5.80
2022-08-05T12:39:34.752Z,3.97
2022-08-05T12:42:09.943Z,4.17
2022-08-05T12:44:44.530Z,5.73
2022-08-05T12:47:17.175Z,5.90
2022-08-05T12:50:02.945Z,5.10
2022-08-05T12:52:39.624Z,4.90
2022-08-05T12:55:23.300Z,4.40
2022-08-05T12:58:50.934Z,4.47
2022-08-05T13:02:02.060Z,4.40
2022-08-05T13:03:33.477Z,4.07
2022-08-05T13:06:03.302Z,5.00
2022-08-05T13:08:32.943Z,8.53
2022-08-05T13:11:02.036Z,5.80
2022-08-05T13:14:06.643Z,4.53
2022-08-05T13:16:25.023Z,6.70
2022-08-05T13:18:55.162Z,4.20
2022-08-05T13:21:38.067Z,4.03
2022-08-05T13:24:27.636Z,5.23
2022-08-05T13:27:05.809Z,4.70
2022-08-05T13:29:39.359Z,6.87
2022-08-05T13:32:32.994Z,5.57
2022-08-05T13:35:02.341Z,7.20
2022-08-05T13:37:34.864Z,5.00
2022-08-05T13:40:14.449Z,4.33
2022-08-05T13:42:45.194Z,4.87
2022-08-05T13:45:14.300Z,20.03
2022-08-05T13:48:08.854Z,8.10
2022-08-05T13:50:37.422Z,10.07
2022-08-05T13:53:15.588Z,5.83
2022-08-05T13:55:49.273Z,3.78
2022-08-05T13:58:30.899Z,5.18
2022-08-05T14:00:59.747Z,4.20
2022-08-05T14:03:28.649Z,5.63
2022-08-05T14:06:25.312Z,4.80
2022-08-05T14:08:47.210Z,4.40
2022-08-05T14:11:20.926Z,4.68
2022-08-05T14:13:54.927Z,5.72
2022-08-05T14:16:25.875Z,6.20
2022-08-05T14:18:54.053Z,5.77
2022-08-05T14:22:10.278Z,4.43
2022-08-05T14:24:12.315Z,4.57
2022-08-05T14:26:51.504Z,6.33
2022-08-05T14:29:28.604Z,4.63
2022-08-05T14:32:11.583Z,6.73
2022-08-05T14:34:42.319Z,5.60
2022-08-05T14:37:13.403Z,4.30
2022-08-05T14:39:49.934Z,6.10
2022-08-05T14:42:25.109Z,4.73
2022-08-05T14:44:54.018Z,4.10
2022-08-05T14:48:03.318Z,3.60
2022-08-05T14:50:17.567Z,8.00
2022-08-05T14:52:57.792Z,5.83
2022-08-05T14:55:39.326Z,3.70
2022-08-05T14:58:11.030Z,6.83
2022-08-05T15:00:59.787Z,9.93
2022-08-05T15:03:33.010Z,5.70
2022-08-05T15:06:07.803Z,8.03
2022-08-05T15:08:59.145Z,4.23
2022-08-05T15:11:51.095Z,5.20
2022-08-05T15:14:35.114Z,7.97
2022-08-05T15:17:44.747Z,4.80
2022-08-05T15:19:58.263Z,5.37
2022-08-05T15:22:27.024Z,4.17
2022-08-05T15:24:56.109Z,9.43
2022-08-05T15:27:26.003Z,10.83
2022-08-05T15:29:56.552Z,6.07
2022-08-05T15:32:27.473Z,6.00
2022-08-05T15:34:56.980Z,4.83
2022-08-05T15:38:31.820Z,4.70
2022-08-05T15:41:00.732Z,4.03
2022-08-05T15:43:12.506Z,4.87
2022-08-05T15:45:47.763Z,4.60
2022-08-05T15:48:28.255Z,4.00
2022-08-05T15:50:56.589Z,9.03
2022-08-05T15:53:26.495Z,4.60
2022-08-05T15:56:09.144Z,5.20
2022-08-05T15:58:43.616Z,6.90
2022-08-05T16:01:16.274Z,4.00
2022-08-05T16:03:48.196Z,4.57
2022-08-05T16:06:20.254Z,6.00
2022-08-05T16:08:51.234Z,7.73
2022-08-05T16:11:40.210Z,5.97
2022-08-05T16:14:17.431Z,4.87
2022-08-05T16:16:47.147Z,8.33
2022-08-05T16:19:25.606Z,4.73
2022-08-05T16:22:03.951Z,6.23
2022-08-05T16:24:39.518Z,6.00
2022-08-05T16:27:09.073Z,6.57
2022-08-05T16:29:38.555Z,5.33
2022-08-05T16:32:09.795Z,8.10
2022-08-05T16:34:39.313Z,7.40
2022-08-05T16:38:15.709Z,4.40
2022-08-05T16:40:05.219Z,5.70
2022-08-05T16:42:36.089Z,3.67
2022-08-05T16:46:02.955Z,5.00
2022-08-05T16:47:58.472Z,6.57
2022-08-05T16:50:30.428Z,9.37
2022-08-05T16:53:00.367Z,5.83
2022-08-05T16:55:46.906Z,4.37
2022-08-05T16:58:15.536Z,7.20
2022-08-05T17:00:49.785Z,4.70
2022-08-05T17:03:19.586Z,5.73
2022-08-05T17:05:53.711Z,7.60
2022-08-05T17:08:35.841Z,11.23
2022-08-05T17:11:12.735Z,12.40
2022-08-05T17:13:45.390Z,10.93
2022-08-05T17:16:33.267Z,7.33
2022-08-05T17:19:02.219Z,9.83
2022-08-05T17:21:35.805Z,6.87
2022-08-05T17:24:14.352Z,5.67
2022-08-05T17:26:55.391Z,9.10
2022-08-05T17:29:33.813Z,6.50
2022-08-05T17:32:26.334Z,6.90
2022-08-05T17:34:54.566Z,9.10
2022-08-05T17:37:39.647Z,12.30
2022-08-05T17:40:12.445Z,6.47
2022-08-05T17:42:43.175Z,5.23
2022-08-05T17:45:21.075Z,7.10
2022-08-05T17:47:54.609Z,8.70
2022-08-05T17:50:28.020Z,7.40
2022-08-05T17:52:59.001Z,10.93
2022-08-05T17:55:37.931Z,13.07
2022-08-05T17:58:14.434Z,14.57
2022-08-05T18:00:50.956Z,11.73
2022-08-05T18:03:59.254Z,9.20
2022-08-05T18:06:12.341Z,8.83
2022-08-05T18:08:45.920Z,6.27
2022-08-05T18:11:24.627Z,11.10
2022-08-05T18:14:03.379Z,6.87
2022-08-05T18:16:32.894Z,11.60
2022-08-05T18:19:03.247Z,7.27
2022-08-05T18:22:08.396Z,7.03
2022-08-05T18:24:21.010Z,11.37
2022-08-05T18:26:49.280Z,8.20
2022-08-05T18:29:17.598Z,8.47
2022-08-05T18:32:06.935Z,10.10
2022-08-05T18:34:42.929Z,9.70
2022-08-05T18:37:12.400Z,7.40
2022-08-05T18:40:29.859Z,11.10
2022-08-05T18:42:29.301Z,10.17
2022-08-05T18:44:57.964Z,11.37
2022-08-05T18:47:28.368Z,7.57
2022-08-05T18:50:18.328Z,5.60
2022-08-05T18:52:51.263Z,7.00
2022-08-05T18:55:21.714Z,6.77
2022-08-05T18:57:53.422Z,8.73
2022-08-05T19:00:31.134Z,7.40
2022-08-05T19:03:03.976Z,9.30
2022-08-05T19:06:12.347Z,8.23
2022-08-05T19:08:30.577Z,6.43
2022-08-05T19:11:04.680Z,5.93
2022-08-05T19:13:35.920Z,10.47
2022-08-05T19:16:24.917Z,5.87
2022-08-05T19:18:56.610Z,6.23
2022-08-05T19:21:34.143Z,7.43
2022-08-05T19:24:07.922Z,13.23
2022-08-05T19:26:54.263Z,10.60
2022-08-05T19:29:35.461Z,6.90
2022-08-05T19:32:05.512Z,6.40
2022-08-05T19:34:36.828Z,17.47
2022-08-05T19:37:08.264Z,9.80
2022-08-05T19:39:45.799Z,7.27
2022-08-05T19:42:35.581Z,14.80
2022-08-05T19:45:06.447Z,8.83
2022-08-05T19:47:37.677Z,10.40
2022-08-05T19:50:07.850Z,6.40
2022-08-05T19:52:41.463Z,7.77
2022-08-05T19:56:14.451Z,7.47
2022-08-05T19:58:19.484Z,8.40
2022-08-05T20:00:47.491Z,11.87
2022-08-05T20:03:16.068Z,8.67
2022-08-05T20:05:50.096Z,9.23
2022-08-05T20:08:24.580Z,9.17
2022-08-05T20:10:53.269Z,15.43
2022-08-05T20:13:30.116Z,7.70
2022-08-05T20:16:10.954Z,8.83
2022-08-05T20:18:39.580Z,8.63
2022-08-05T20:21:08.839Z,15.87
2022-08-05T20:23:50.918Z,6.70
2022-08-05T20:26:23.401Z,7.70
2022-08-05T20:28:55.757Z,7.90
2022-08-05T20:31:36.713Z,8.60
2022-08-05T20:34:11.616Z,7.37
2022-08-05T20:36:43.256Z,10.87
2022-08-05T20:39:16.627Z,9.60
2022-08-05T20:41:46.579Z,10.63
2022-08-05T20:44:29.563Z,8.67
2022-08-05T20:46:59.394Z,9.37
2022-08-05T20:49:28.275Z,7.10
2022-08-05T20:51:57.855Z,8.57
2022-08-05T20:54:55.379Z,7.50
2022-08-05T20:57:24.610Z,6.87
2022-08-05T21:00:19.590Z,8.70
2022-08-05T21:03:00.077Z,7.60
2022-08-05T21:05:48.250Z,7.53
2022-08-05T21:08:17.759Z,10.10
2022-08-05T21:10:48.851Z,11.10
2022-08-05T21:13:20.363Z,11.43
2022-08-05T21:15:55.566Z,11.03
2022-08-05T21:18:23.630Z,8.47
2022-08-05T21:20:52.966Z,8.43
2022-08-05T21:23:21.037Z,8.93
2022-08-05T21:25:52.090Z,7.90
2022-08-05T21:28:23.852Z,13.33
2022-08-05T21:30:52.151Z,10.20
2022-08-05T21:33:22.366Z,7.73
2022-08-05T21:35:58.236Z,8.03
2022-08-05T21:38:27.770Z,8.17
2022-08-05T21:40:57.690Z,12.50
2022-08-05T21:43:26.226Z,7.63
2022-08-05T21:46:01.701Z,7.50
2022-08-05T21:48:32.239Z,7.27
2022-08-05T21:51:01.503Z,8.90
2022-08-05T21:53:29.637Z,7.17
2022-08-05T21:56:09.769Z,8.03
2022-08-05T21:58:57.178Z,11.20
2022-08-05T22:01:26.488Z,7.77
2022-08-05T22:03:55.223Z,7.37
2022-08-05T22:06:37.080Z,6.90
2022-08-05T22:09:14.667Z,7.93
2022-08-05T22:11:46.750Z,8.97
2022-08-05T22:14:33.136Z,9.50
2022-08-05T22:17:05.361Z,9.77
2022-08-05T22:20:00.423Z,8.07
2022-08-05T22:22:27.977Z,8.17
2022-08-05T22:25:18.249Z,8.00
2022-08-05T22:28:04.943Z,10.33
2022-08-05T22:30:44.114Z,10.10
2022-08-05T22:33:57.820Z,8.63
2022-08-05T22:36:14.461Z,11.87
2022-08-05T22:38:48.042Z,9.70
2022-08-05T22:41:26.262Z,7.70
2022-08-05T22:44:07.903Z,9.20
2022-08-05T22:46:39.502Z,9.47
2022-08-05T22:49:08.130Z,9.30
2022-08-05T22:52:07.308Z,10.00
2022-08-05T22:54:39.916Z,12.77
2022-08-05T22:57:17.031Z,11.10
2022-08-05T22:59:51.854Z,7.63
2022-08-05T23:02:29.226Z,10.77
2022-08-05T23:05:02.095Z,11.10
2022-08-05T23:07:44.762Z,13.53
2022-08-05T23:10:14.012Z,9.33
2022-08-05T23:12:43.783Z,7.73
2022-08-05T23:15:13.630Z,23.97
2022-08-05T23:18:00.903Z,11.63
2022-08-05T23:20:32.297Z,9.70
2022-08-05T23:23:00.767Z,11.40
2022-08-05T23:25:54.747Z,8.83
2022-08-05T23:28:22.731Z,9.83
2022-08-05T23:30:54.656Z,11.43
2022-08-05T23:34:02.782Z,8.57
2022-08-05T23:36:13.764Z,9.67
2022-08-05T23:38:43.027Z,11.13
2022-08-05T23:41:12.269Z,9.33
2022-08-05T23:44:05.623Z,10.07
2022-08-05T23:46:31.118Z,11.10
2022-08-05T23:49:01.949Z,11.20
2022-08-05T23:52:01.487Z,9.87
2022-08-05T23:54:36.223Z,14.47
2022-08-05T23:57:07.612Z,10.77
